createdAt,value
2019-05-18T00:00:29.717Z,13.16
2019-05-18T00:03:01.782Z,13.18
2019-05-18T00:05:34.228Z,13.20
2019-05-18T00:08:06.463Z,13.15
2019-05-18T00:10:40.231Z,13.23
2019-05-18T00:13:12.429Z,13.18
2019-05-18T00:15:44.367Z,13.25
2019-05-18T00:18:16.453Z,13.31
2019-05-18T00:20:48.411Z,13.31
2019-05-18T00:23:20.360Z,13.28
2019-05-18T00:25:52.344Z,13.24
2019-05-18T00:28:24.471Z,13.19
2019-05-18T00:30:56.489Z,13.14
2019-05-18T00:33:28.529Z,13.10
2019-05-18T00:36:00.929Z,13.07
2019-05-18T00:38:32.922Z,13.06
2019-05-18T00:41:05.025Z,13.06
2019-05-18T00:43:37.075Z,13.05
2019-05-18T00:46:09.019Z,13.06
2019-05-18T00:48:41.269Z,13.08
2019-05-18T00:51:13.408Z,13.09
2019-05-18T00:53:45.377Z,13.14
2019-05-18T00:56:17.529Z,13.15
2019-05-18T00:58:49.723Z,13.18
2019-05-18T01:01:21.720Z,13.14
2019-05-18T01:03:53.753Z,13.13
2019-05-18T01:06:25.716Z,13.11
2019-05-18T01:08:57.738Z,13.10
2019-05-18T01:11:29.750Z,13.11
2019-05-18T01:14:01.875Z,13.10
2019-05-18T01:16:33.878Z,13.09
2019-05-18T01:19:05.945Z,13.08
2019-05-18T01:21:38.114Z,13.06
2019-05-18T01:24:10.696Z,13.06
2019-05-18T01:26:42.681Z,13.03
2019-05-18T01:29:14.651Z,13.10
2019-05-18T01:31:47.787Z,13.15
2019-05-18T01:34:19.752Z,13.14
2019-05-18T01:36:51.993Z,13.11
2019-05-18T01:39:24.058Z,13.10
2019-05-18T01:41:57.869Z,13.08
2019-05-18T01:44:30.257Z,13.06
2019-05-18T01:47:02.467Z,13.04
2019-05-18T01:49:35.498Z,13.02
2019-05-18T01:52:07.565Z,12.98
2019-05-18T01:54:39.550Z,13.02
2019-05-18T01:57:11.543Z,12.99
2019-05-18T01:59:43.644Z,12.98
2019-05-18T02:02:15.655Z,12.97
2019-05-18T02:04:47.653Z,12.96
2019-05-18T02:07:20.338Z,12.95
2019-05-18T02:09:52.330Z,12.92
2019-05-18T02:12:24.290Z,12.84
2019-05-18T02:14:56.257Z,12.74
2019-05-18T02:17:28.261Z,12.59
2019-05-18T02:20:00.206Z,12.53
2019-05-18T02:22:32.169Z,12.44
2019-05-18T02:25:04.648Z,12.41
2019-05-18T02:27:36.634Z,12.50
2019-05-18T02:30:09.518Z,12.50
2019-05-18T02:32:41.565Z,12.49
2019-05-18T02:35:14.256Z,12.49
2019-05-18T02:37:47.332Z,12.46
2019-05-18T02:40:19.579Z,12.44
2019-05-18T02:42:51.559Z,12.39
2019-05-18T02:45:23.560Z,12.36
2019-05-18T02:47:55.729Z,12.33
2019-05-18T02:50:28.020Z,12.31
2019-05-18T02:53:00.365Z,12.30
2019-05-18T02:55:32.329Z,12.26
2019-05-18T02:58:04.300Z,12.23
2019-05-18T03:00:36.322Z,12.22
2019-05-18T03:03:08.324Z,12.20
2019-05-18T03:05:40.397Z,12.18
2019-05-18T03:08:12.399Z,12.18
2019-05-18T03:10:44.536Z,12.21
2019-05-18T03:13:16.807Z,12.23
2019-05-18T03:15:48.783Z,12.28
2019-05-18T03:18:21.179Z,12.33
2019-05-18T03:20:53.271Z,12.37
2019-05-18T03:23:25.365Z,12.39
2019-05-18T03:25:57.699Z,12.43
2019-05-18T03:28:29.936Z,12.46
2019-05-18T03:31:02.082Z,12.46
2019-05-18T03:33:34.287Z,12.43
2019-05-18T03:36:06.250Z,12.37
2019-05-18T03:38:38.254Z,12.32
2019-05-18T03:41:10.222Z,12.32
2019-05-18T03:43:42.644Z,12.30
2019-05-18T03:46:14.629Z,12.27
2019-05-18T03:48:46.742Z,12.27
2019-05-18T03:51:18.709Z,12.24
2019-05-18T03:53:50.716Z,12.22
2019-05-18T03:56:22.732Z,12.22
2019-05-18T03:58:54.695Z,12.22
2019-05-18T04:01:26.792Z,12.21
2019-05-18T04:03:58.841Z,12.21
2019-05-18T04:06:31.704Z,12.20
2019-05-18T04:09:04.752Z,12.22
2019-05-18T04:11:36.769Z,12.22
2019-05-18T04:14:08.948Z,12.25
2019-05-18T04:16:41.185Z,12.30
2019-05-18T04:19:13.195Z,12.35
2019-05-18T04:21:45.204Z,12.44
2019-05-18T04:24:17.213Z,12.54
2019-05-18T04:26:50.387Z,12.71
2019-05-18T04:29:22.411Z,12.92
2019-05-18T04:31:54.410Z,13.22
2019-05-18T04:34:26.719Z,13.59
2019-05-18T04:36:58.773Z,14.05
2019-05-18T04:39:31.125Z,14.34
2019-05-18T04:42:03.114Z,14.70
2019-05-18T04:44:35.190Z,15.32
2019-05-18T04:47:07.175Z,16.18
2019-05-18T04:49:39.204Z,17.20
2019-05-18T04:52:11.275Z,18.35
2019-05-18T04:54:44.515Z,20.09
2019-05-18T04:57:16.726Z,21.57
2019-05-18T04:59:48.824Z,23.38
2019-05-18T05:02:21.169Z,25.03
2019-05-18T05:04:56.551Z,26.84
2019-05-18T05:07:26.947Z,28.36
2019-05-18T05:09:59.278Z,29.93
2019-05-18T05:12:31.252Z,31.53
2019-05-18T05:15:03.233Z,32.91
2019-05-18T05:17:35.189Z,34.15
2019-05-18T05:20:19.399Z,35.48
2019-05-18T05:22:41.250Z,36.48
2019-05-18T05:25:13.331Z,37.65
2019-05-18T05:27:45.350Z,38.58
2019-05-18T05:30:18.005Z,39.57
2019-05-18T05:32:50.345Z,40.64
2019-05-18T05:35:22.320Z,41.71
2019-05-18T05:37:54.269Z,42.37
2019-05-18T05:40:26.243Z,43.60
2019-05-18T05:42:58.197Z,44.98
2019-05-18T05:45:30.223Z,46.14
2019-05-18T05:48:02.193Z,47.27
2019-05-18T05:50:36.383Z,48.23
2019-05-18T05:53:07.955Z,49.15
2019-05-18T05:55:39.919Z,49.96
2019-05-18T05:58:11.879Z,50.90
2019-05-18T06:00:43.875Z,51.84
2019-05-18T06:03:15.861Z,52.78
2019-05-18T06:05:47.855Z,53.35
2019-05-18T06:08:20.539Z,53.69
2019-05-18T06:10:52.509Z,54.88
2019-05-18T06:13:24.493Z,55.97
2019-05-18T06:15:59.677Z,56.35
2019-05-18T06:18:31.724Z,56.92
2019-05-18T06:21:03.766Z,57.89
2019-05-18T06:23:35.812Z,59.22
2019-05-18T06:26:07.820Z,59.78
2019-05-18T06:28:39.801Z,60.70
2019-05-18T06:31:11.772Z,61.34
2019-05-18T06:33:43.821Z,62.18
2019-05-18T06:36:15.801Z,61.97
2019-05-18T06:38:47.831Z,62.20
2019-05-18T06:41:19.843Z,63.08
2019-05-18T06:43:51.818Z,64.09
2019-05-18T06:46:23.879Z,65.00
2019-05-18T06:48:56.759Z,65.95
2019-05-18T06:51:28.727Z,66.54
2019-05-18T06:54:01.079Z,67.51
2019-05-18T06:56:34.409Z,68.44
2019-05-18T06:59:06.415Z,68.19
2019-05-18T07:01:38.793Z,67.99
2019-05-18T07:04:10.858Z,68.89
2019-05-18T07:06:43.276Z,68.76
2019-05-18T07:09:15.414Z,69.69
2019-05-18T07:11:47.365Z,70.03
2019-05-18T07:14:25.821Z,70.58
2019-05-18T07:16:52.995Z,70.93
2019-05-18T07:19:24.962Z,72.09
2019-05-18T07:21:56.965Z,72.30
2019-05-18T07:24:28.945Z,72.80
2019-05-18T07:27:01.303Z,73.38
2019-05-18T07:29:33.454Z,73.46
2019-05-18T07:32:05.448Z,74.88
2019-05-18T07:34:37.440Z,74.81
2019-05-18T07:37:09.437Z,75.30
2019-05-18T07:39:41.449Z,75.42
2019-05-18T07:42:13.407Z,75.15
2019-05-18T07:44:45.377Z,74.60
2019-05-18T07:47:17.368Z,75.26
2019-05-18T07:49:49.347Z,75.60
2019-05-18T07:52:21.375Z,72.97
2019-05-18T07:54:53.329Z,72.80
2019-05-18T07:57:25.365Z,74.10
2019-05-18T07:59:57.322Z,75.75
2019-05-18T08:02:30.055Z,73.72
2019-05-18T08:05:02.115Z,73.58
2019-05-18T08:07:34.061Z,75.08
2019-05-18T08:10:07.995Z,73.33
2019-05-18T08:12:40.143Z,68.26
2019-05-18T08:15:12.903Z,67.60
2019-05-18T08:17:44.909Z,67.01
2019-05-18T08:20:17.017Z,67.66
2019-05-18T08:22:48.961Z,70.36
2019-05-18T08:25:21.631Z,71.61
2019-05-18T08:27:53.586Z,71.54
2019-05-18T08:30:25.531Z,72.56
2019-05-18T08:32:57.527Z,72.91
2019-05-18T08:35:29.535Z,74.10
2019-05-18T08:38:01.558Z,72.83
2019-05-18T08:40:33.568Z,71.84
2019-05-18T08:43:05.527Z,71.92
2019-05-18T08:45:37.517Z,70.56
2019-05-18T08:48:09.990Z,70.89
2019-05-18T08:50:41.931Z,68.83
2019-05-18T08:53:14.088Z,68.17
2019-05-18T08:55:46.063Z,69.61
2019-05-18T08:58:18.387Z,69.88
2019-05-18T09:00:50.639Z,69.54
2019-05-18T09:03:22.598Z,70.18
2019-05-18T09:05:54.960Z,70.81
2019-05-18T09:08:26.929Z,72.09
2019-05-18T09:10:58.942Z,72.34
2019-05-18T09:13:31.205Z,71.54
2019-05-18T09:16:03.234Z,61.82
2019-05-18T09:18:35.197Z,60.17
2019-05-18T09:21:07.200Z,60.23
2019-05-18T09:23:39.240Z,51.35
2019-05-18T09:26:11.160Z,55.89
2019-05-18T09:28:43.169Z,56.81
2019-05-18T09:31:15.159Z,54.91
2019-05-18T09:33:47.172Z,59.65
2019-05-18T09:36:19.158Z,63.84
2019-05-18T09:38:51.206Z,67.72
2019-05-18T09:41:23.207Z,70.49
2019-05-18T09:43:55.118Z,70.04
2019-05-18T09:46:27.087Z,65.04
2019-05-18T09:48:59.059Z,65.57
2019-05-18T09:51:31.202Z,65.96
2019-05-18T09:54:03.147Z,65.90
2019-05-18T09:56:35.153Z,64.22
2019-05-18T09:59:07.136Z,63.34
2019-05-18T10:01:39.131Z,63.68
2019-05-18T10:04:11.077Z,63.73
2019-05-18T10:06:43.022Z,66.05
2019-05-18T10:09:15.005Z,68.92
2019-05-18T10:11:46.977Z,70.16
2019-05-18T10:14:18.987Z,70.27
2019-05-18T10:16:50.967Z,68.46
2019-05-18T10:19:22.969Z,70.30
2019-05-18T10:21:54.923Z,70.33
2019-05-18T10:24:26.948Z,70.63
2019-05-18T10:26:58.926Z,72.94
2019-05-18T10:29:31.361Z,75.74
2019-05-18T10:32:03.423Z,76.68
2019-05-18T10:34:35.401Z,77.59
2019-05-18T10:37:07.678Z,76.72
2019-05-18T10:39:39.916Z,79.48
2019-05-18T10:42:12.088Z,80.89
2019-05-18T10:44:47.076Z,80.71
2019-05-18T10:47:19.048Z,80.15
2019-05-18T10:49:51.012Z,74.90
2019-05-18T10:52:23.036Z,73.75
2019-05-18T10:54:54.982Z,74.97
2019-05-18T10:57:26.987Z,76.05
2019-05-18T10:59:59.119Z,76.99
2019-05-18T11:02:32.279Z,77.55
2019-05-18T11:05:04.231Z,77.18
2019-05-18T11:07:36.217Z,75.45
2019-05-18T11:10:09.272Z,72.79
2019-05-18T11:12:41.526Z,71.97
2019-05-18T11:15:14.442Z,70.72
2019-05-18T11:17:46.423Z,70.26
2019-05-18T11:20:18.813Z,69.76
2019-05-18T11:22:51.071Z,69.00
2019-05-18T11:25:23.329Z,68.06
2019-05-18T11:27:55.269Z,62.97
2019-05-18T11:30:27.209Z,57.52
2019-05-18T11:32:59.170Z,52.71
2019-05-18T11:35:31.157Z,49.48
2019-05-18T11:38:03.199Z,47.19
2019-05-18T11:40:35.238Z,45.13
2019-05-18T11:43:07.461Z,43.20
2019-05-18T11:45:40.121Z,41.68
2019-05-18T11:48:12.138Z,40.52
2019-05-18T11:50:44.106Z,38.87
2019-05-18T11:53:16.126Z,37.46
2019-05-18T11:55:48.059Z,35.40
2019-05-18T11:58:20.443Z,34.06
2019-05-18T12:00:52.567Z,33.63
2019-05-18T12:03:24.668Z,33.60
2019-05-18T12:05:56.693Z,33.38
2019-05-18T12:08:28.659Z,32.24
2019-05-18T12:11:00.639Z,31.22
2019-05-18T12:13:32.634Z,30.55
2019-05-18T12:16:04.724Z,29.97
2019-05-18T12:18:36.787Z,29.64
2019-05-18T12:21:09.066Z,29.28
2019-05-18T12:23:41.331Z,28.95
2019-05-18T12:26:13.402Z,28.39
2019-05-18T12:28:45.347Z,28.30
2019-05-18T12:31:17.399Z,28.42
2019-05-18T12:33:50.765Z,28.70
2019-05-18T12:36:22.821Z,28.84
2019-05-18T12:38:54.796Z,29.07
2019-05-18T12:41:29.778Z,29.02
2019-05-18T12:44:02.036Z,29.01
2019-05-18T12:46:34.160Z,29.05
2019-05-18T12:49:06.135Z,29.06
2019-05-18T12:51:38.130Z,28.91
2019-05-18T12:54:10.129Z,28.68
2019-05-18T12:56:42.098Z,28.66
2019-05-18T12:59:14.072Z,28.54
2019-05-18T13:01:46.030Z,28.50
2019-05-18T13:04:18.124Z,28.49
2019-05-18T13:06:50.100Z,28.51
2019-05-18T13:09:23.803Z,28.47
2019-05-18T13:11:55.993Z,28.44
2019-05-18T13:14:27.924Z,28.13
2019-05-18T13:16:59.978Z,28.07
2019-05-18T13:19:31.958Z,28.38
2019-05-18T13:22:04.003Z,28.68
2019-05-18T13:24:44.742Z,28.85
2019-05-18T13:27:09.652Z,29.23
2019-05-18T13:29:41.621Z,29.83
2019-05-18T13:32:13.634Z,30.05
2019-05-18T13:34:45.679Z,30.30
2019-05-18T13:37:17.647Z,30.61
2019-05-18T13:39:49.608Z,31.15
2019-05-18T13:42:21.666Z,31.58
2019-05-18T13:44:53.624Z,31.92
2019-05-18T13:47:25.686Z,31.80
2019-05-18T13:49:58.404Z,31.24
2019-05-18T13:52:30.877Z,31.07
2019-05-18T13:55:05.052Z,30.90
2019-05-18T13:57:36.684Z,30.60
2019-05-18T14:00:09.857Z,30.67
2019-05-18T14:02:41.865Z,30.35
2019-05-18T14:05:15.502Z,29.85
2019-05-18T14:07:47.501Z,29.35
2019-05-18T14:10:19.597Z,29.12
2019-05-18T14:12:51.558Z,28.68
2019-05-18T14:15:23.678Z,28.36
2019-05-18T14:17:55.685Z,28.23
2019-05-18T14:20:27.839Z,28.29
2019-05-18T14:23:00.511Z,28.27
2019-05-18T14:25:32.485Z,28.14
2019-05-18T14:28:04.464Z,27.80
2019-05-18T14:30:36.458Z,27.75
2019-05-18T14:33:08.554Z,27.86
2019-05-18T14:35:40.579Z,27.98
2019-05-18T14:38:12.605Z,28.34
2019-05-18T14:40:44.684Z,28.63
2019-05-18T14:43:16.764Z,28.61
2019-05-18T14:45:49.528Z,28.83
2019-05-18T14:48:21.883Z,28.98
2019-05-18T14:50:53.965Z,28.87
2019-05-18T14:53:26.025Z,28.52
2019-05-18T14:55:58.019Z,28.03
2019-05-18T14:58:30.112Z,27.57
2019-05-18T15:01:02.108Z,27.20
2019-05-18T15:03:34.220Z,26.92
2019-05-18T15:06:06.286Z,26.53
2019-05-18T15:08:38.265Z,26.38
2019-05-18T15:11:10.609Z,26.45
2019-05-18T15:13:42.628Z,26.49
2019-05-18T15:16:14.591Z,26.49
2019-05-18T15:18:46.577Z,26.41
2019-05-18T15:21:18.650Z,26.23
2019-05-18T15:23:51.015Z,26.14
2019-05-18T15:26:23.066Z,26.11
2019-05-18T15:28:55.118Z,26.11
2019-05-18T15:31:27.106Z,26.23
2019-05-18T15:33:59.070Z,26.28
2019-05-18T15:36:31.368Z,26.31
2019-05-18T15:39:03.326Z,26.41
2019-05-18T15:41:35.320Z,26.60
2019-05-18T15:44:07.304Z,26.93
2019-05-18T15:46:39.266Z,27.21
2019-05-18T15:49:11.293Z,27.54
2019-05-18T15:51:43.347Z,27.74
2019-05-18T15:54:15.411Z,27.76
2019-05-18T15:56:47.426Z,27.53
2019-05-18T15:59:19.997Z,27.24
2019-05-18T16:01:52.014Z,27.05
2019-05-18T16:04:27.757Z,27.04
2019-05-18T16:07:00.233Z,26.97
2019-05-18T16:09:32.181Z,26.94
2019-05-18T16:12:04.389Z,26.87
2019-05-18T16:14:36.449Z,26.84
2019-05-18T16:17:08.450Z,26.81
2019-05-18T16:19:40.445Z,26.59
2019-05-18T16:22:12.467Z,26.42
2019-05-18T16:24:44.455Z,26.31
2019-05-18T16:27:16.492Z,26.28
2019-05-18T16:29:48.466Z,26.23
2019-05-18T16:32:21.080Z,26.11
2019-05-18T16:34:53.046Z,25.61
2019-05-18T16:37:25.033Z,25.00
2019-05-18T16:39:57.028Z,24.41
2019-05-18T16:42:29.057Z,23.80
2019-05-18T16:45:01.270Z,23.32
2019-05-18T16:47:33.328Z,22.85
2019-05-18T16:50:05.739Z,22.58
2019-05-18T16:52:37.697Z,22.35
2019-05-18T16:55:10.197Z,22.07
2019-05-18T16:57:42.207Z,21.81
2019-05-18T17:00:16.736Z,21.57
2019-05-18T17:02:48.826Z,21.46
2019-05-18T17:05:20.854Z,21.42
2019-05-18T17:07:52.826Z,21.51
2019-05-18T17:10:24.821Z,21.62
2019-05-18T17:12:56.775Z,21.66
2019-05-18T17:15:28.910Z,21.65
2019-05-18T17:18:02.385Z,21.69
2019-05-18T17:20:34.383Z,21.78
2019-05-18T17:23:06.480Z,21.83
2019-05-18T17:25:38.453Z,21.85
2019-05-18T17:28:10.803Z,21.97
2019-05-18T17:30:43.069Z,22.09
2019-05-18T17:33:15.201Z,22.17
2019-05-18T17:35:59.911Z,22.17
2019-05-18T17:38:21.217Z,22.15
2019-05-18T17:40:53.201Z,22.15
2019-05-18T17:43:25.207Z,22.12
2019-05-18T17:45:57.207Z,22.09
2019-05-18T17:48:29.830Z,22.01
2019-05-18T17:51:01.833Z,21.92
2019-05-18T17:53:33.868Z,21.85
2019-05-18T17:56:05.937Z,21.77
2019-05-18T17:58:38.008Z,21.77
2019-05-18T18:01:10.245Z,21.63
2019-05-18T18:03:42.274Z,21.55
2019-05-18T18:06:14.296Z,21.39
2019-05-18T18:08:46.288Z,21.25
2019-05-18T18:11:18.234Z,21.09
2019-05-18T18:13:50.564Z,20.92
2019-05-18T18:16:22.565Z,20.64
2019-05-18T18:18:54.568Z,19.90
2019-05-18T18:21:26.546Z,18.60
2019-05-18T18:23:58.620Z,17.14
2019-05-18T18:26:30.566Z,16.31
2019-05-18T18:29:04.226Z,15.75
2019-05-18T18:31:36.293Z,15.50
2019-05-18T18:34:08.371Z,15.25
2019-05-18T18:36:40.860Z,15.09
2019-05-18T18:39:12.810Z,15.00
2019-05-18T18:41:44.828Z,14.98
2019-05-18T18:44:16.872Z,14.90
2019-05-18T18:46:48.847Z,15.00
2019-05-18T18:49:21.215Z,14.92
2019-05-18T18:51:53.319Z,14.79
2019-05-18T18:54:25.375Z,14.73
2019-05-18T18:56:57.382Z,14.68
2019-05-18T18:59:29.370Z,14.70
2019-05-18T19:02:01.336Z,14.78
2019-05-18T19:04:33.327Z,14.94
2019-05-18T19:07:05.311Z,15.17
2019-05-18T19:09:37.359Z,15.38
2019-05-18T19:12:09.425Z,15.49
2019-05-18T19:14:41.404Z,15.63
2019-05-18T19:17:13.449Z,15.80
2019-05-18T19:19:45.458Z,15.83
2019-05-18T19:22:17.407Z,15.87
2019-05-18T19:24:49.993Z,15.86
2019-05-18T19:27:21.939Z,15.53
2019-05-18T19:29:53.926Z,15.39
2019-05-18T19:32:25.930Z,15.23
2019-05-18T19:34:57.962Z,15.07
2019-05-18T19:37:30.599Z,14.89
2019-05-18T19:40:02.666Z,14.78
2019-05-18T19:42:34.687Z,14.82
2019-05-18T19:45:07.440Z,14.86
2019-05-18T19:47:39.598Z,14.91
2019-05-18T19:50:13.845Z,15.05
2019-05-18T19:52:45.849Z,15.17
2019-05-18T19:55:18.229Z,15.32
2019-05-18T19:57:50.285Z,15.46
2019-05-18T20:00:22.821Z,15.49
2019-05-18T20:02:54.909Z,15.52
2019-05-18T20:05:26.986Z,15.51
2019-05-18T20:07:59.013Z,15.55
2019-05-18T20:10:31.290Z,15.57
2019-05-18T20:13:03.283Z,15.57
2019-05-18T20:15:35.333Z,15.57
2019-05-18T20:18:07.514Z,15.60
2019-05-18T20:20:39.558Z,15.64
2019-05-18T20:23:11.577Z,15.65
2019-05-18T20:25:43.669Z,15.72
2019-05-18T20:28:23.266Z,15.81
2019-05-18T20:30:49.479Z,15.89
2019-05-18T20:33:21.575Z,15.98
2019-05-18T20:35:53.637Z,16.04
2019-05-18T20:38:25.593Z,16.05
2019-05-18T20:40:57.568Z,16.08
2019-05-18T20:43:29.637Z,16.11
2019-05-18T20:46:01.673Z,16.05
2019-05-18T20:48:33.664Z,16.07
2019-05-18T20:51:05.691Z,16.11
2019-05-18T20:53:40.869Z,16.18
2019-05-18T20:56:11.342Z,16.20
2019-05-18T20:58:43.306Z,16.22
2019-05-18T21:01:15.311Z,16.19
2019-05-18T21:03:47.348Z,16.08
2019-05-18T21:06:19.997Z,15.99
2019-05-18T21:08:52.051Z,15.80
2019-05-18T21:11:24.133Z,15.60
2019-05-18T21:13:57.788Z,15.51
2019-05-18T21:16:29.990Z,15.37
2019-05-18T21:19:01.976Z,15.25
2019-05-18T21:21:34.069Z,15.15
2019-05-18T21:24:06.074Z,15.07
2019-05-18T21:26:38.075Z,15.02
2019-05-18T21:29:10.377Z,14.98
2019-05-18T21:31:42.422Z,14.95
2019-05-18T21:34:14.413Z,14.94
2019-05-18T21:36:46.470Z,14.90
2019-05-18T21:39:18.430Z,14.88
2019-05-18T21:41:50.830Z,14.87
2019-05-18T21:44:22.864Z,14.85
2019-05-18T21:46:54.880Z,14.85
2019-05-18T21:49:26.851Z,14.87
2019-05-18T21:51:58.828Z,14.93
2019-05-18T21:54:31.753Z,15.02
2019-05-18T21:57:03.926Z,15.15
2019-05-18T21:59:35.914Z,15.26
2019-05-18T22:02:08.283Z,15.36
2019-05-18T22:04:40.245Z,15.42
2019-05-18T22:07:12.281Z,15.47
2019-05-18T22:09:44.356Z,15.46
2019-05-18T22:12:16.338Z,15.45
2019-05-18T22:14:48.311Z,15.41
2019-05-18T22:17:20.307Z,15.37
2019-05-18T22:19:52.257Z,15.37
2019-05-18T22:22:24.333Z,15.37
2019-05-18T22:24:56.358Z,15.38
2019-05-18T22:27:28.319Z,15.40
2019-05-18T22:30:00.552Z,15.42
2019-05-18T22:32:32.625Z,15.45
2019-05-18T22:35:04.679Z,15.46
2019-05-18T22:37:36.840Z,15.48
2019-05-18T22:40:08.839Z,15.49
2019-05-18T22:42:41.376Z,15.45
2019-05-18T22:45:13.702Z,15.34
2019-05-18T22:47:45.674Z,15.20
2019-05-18T22:50:17.884Z,15.16
2019-05-18T22:52:49.918Z,15.00
2019-05-18T22:55:21.896Z,14.84
2019-05-18T22:57:53.865Z,14.72
2019-05-18T23:00:25.886Z,14.60
2019-05-18T23:02:57.903Z,14.58
2019-05-18T23:05:30.242Z,14.51
2019-05-18T23:08:02.260Z,14.43
2019-05-18T23:10:34.191Z,14.35
2019-05-18T23:13:06.283Z,14.29
2019-05-18T23:15:38.342Z,14.19
2019-05-18T23:18:10.869Z,14.06
2019-05-18T23:20:42.833Z,13.92
2019-05-18T23:23:14.814Z,13.76
2019-05-18T23:25:46.820Z,13.65
2019-05-18T23:28:18.783Z,13.58
2019-05-18T23:30:50.849Z,13.52
2019-05-18T23:33:22.819Z,13.50
2019-05-18T23:35:55.477Z,13.43
2019-05-18T23:38:27.602Z,13.39
2019-05-18T23:41:00.092Z,13.41
2019-05-18T23:43:32.089Z,13.45
2019-05-18T23:46:04.124Z,13.49
2019-05-18T23:48:36.155Z,13.47
2019-05-18T23:51:08.160Z,13.48
2019-05-18T23:53:40.487Z,13.49
2019-05-18T23:56:12.465Z,13.49
2019-05-18T23:58:44.419Z,13.47
